Impacts TAF Board
For situational awareness. Not to be used for flight planning purposes.
IDs:

KMSP - Minneapolis-St Paul, MN, US

Issued at 1120 UTC 10 Aug 2022
Updated at 1341 UTC 10 Aug 2022
Potential Impact None Slight Moderate High
Time1253Z 10/14Z 10/15Z 10/16Z 10/17Z 10/18Z 10/19Z 10/20Z 10/21Z 10/22Z 10/23Z 11/00Z 11/01Z 11/02Z>>
Type OBS PRVL PRVL PRVL PRVL PRVL PRVL PRVL PRVL PRVL PRVL PRVL PRVL PRVL
VIS 10 >6 >6 >6 >6 >6 >6 >6 >6 >6 >6 >6 >6 >6
CIG -- -- -- -- -- -- -- -- -- -- -- -- -- --
Cover CLR SCT FEW FEW FEW FEW FEW FEW FEW FEW FEW FEW SKC SKC
FltCat VFR VFR VFR VFR VFR VFR VFR VFR VFR VFR VFR VFR VFR VFR
WX -- -- -- -- -- -- -- -- -- -- -- -- -- --
WDir 300 VRB 340 340 340 340 340 340 340 340 340 340 20 20
WSpd 3 3 7 7 7 7 7 7 7 7 7 7 5 5
WGst -- -- -- -- -- -- -- -- -- -- -- -- -- --
WSHgt -- -- -- -- -- -- -- -- -- -- -- -- -- --
WSDir -- -- -- -- -- -- -- -- -- -- -- -- -- --
WSSpd -- -- -- -- -- -- -- -- -- -- -- -- -- --
Raw TAF
KMSP 101120Z 1012/1118 VRB03KT P6SM SCT045
  FM101500 34007KT P6SM FEW050
  FM110100 02005KT P6SM SKC
  FM110600 06005KT P6SM SCT200
  FM111400 10006KT P6SM FEW200 AMD NOT SKED


Raw METAR
KMSP 101253Z 30003KT 10SM CLR 21/17 A3018 RMK AO2 SLP215 T02110167
KMSP 101153Z 23005KT 10SM FEW200 19/16 A3016 RMK AO2 SLP208 T01940156 10217 20194 53007

METAR Board
Radar Display
Forecast Discussion
For situational awareness. Not to be used for flight planning purposes.